logo tempoitalia

Diretta Meteo Portoroz, SloveniaMonday 26 July ore 02:00

Mappa
Sereno 24 °C Sereno 24 Ore: T.min 19 T.max 32
Ponente Nord Km/h 1.8 Punto di rugiada: 17 °C Umidità: 64% Visibilità: 10 Km
Il sole sorge alle: 05:41 Il sole tramonta alle: 20:43
26 July 2021 02:00 tempo osservato: Sereno Sereno 24 64 1010 vento: Nord N 1.8
26 July 2021 01:30 tempo osservato: Sereno Sereno 24 64 1010 vento: Nord N 1.8
26 July 2021 01:00 tempo osservato: Sereno Sereno 25 65 1010 vento: Nord N 5.5
26 July 2021 00:30 tempo osservato: Sereno Sereno 26 57 1010 vento: Nord N 1.8
26 July 2021 00:00 tempo osservato: Sereno Sereno 25 65 1010 vento: Nord N 1.8
25 July 2021 23:30 tempo osservato: Sereno Sereno 25 61 1010 vento: Nord N 0
25 July 2021 23:00 tempo osservato: Sereno Sereno 25 61 1010 vento: Nord N 0
25 July 2021 22:30 tempo osservato: Sereno Sereno 26 57 1010 vento: Nord N 1.8
25 July 2021 22:00 tempo osservato: Sereno Sereno 26 57 1010 vento: Nord N 5.5
25 July 2021 21:30 tempo osservato: Sereno Sereno 27 54 1010 vento: Nord E/SE 9.3
25 July 2021 21:00 tempo osservato: Sereno Sereno 27 57 1010 vento: Nord SE 7.4
25 July 2021 20:30 tempo osservato: Sereno Sereno 28 54 1010 vento: Nord S/SE 9.3
25 July 2021 20:00 tempo osservato: Sereno Sereno 28 54 1010 vento: Nord S 7.4
25 July 2021 19:30 tempo osservato: Sereno Sereno 29 48 1010 vento: Nord S/SE 7.4
25 July 2021 19:00 tempo osservato: Sereno Sereno 30 45 1010 vento: Nord S 7.4
25 July 2021 18:30 tempo osservato: Sereno Sereno 31 43 1009 vento: Nord SE 9.3
25 July 2021 17:30 tempo osservato: Sereno Sereno 32 40 1009 vento: Nord SE 11.1
25 July 2021 17:00 tempo osservato: Sereno Sereno 31 45 1009 vento: Nord SE 16.7
25 July 2021 16:30 tempo osservato: Sereno Sereno 31 45 1010 vento: Nord S/SE 13
25 July 2021 16:00 tempo osservato: Sereno Sereno 30 51 1010 vento: Nord SE 16.7
25 July 2021 15:30 tempo osservato: Sereno Sereno 30 51 1010 vento: Nord S/SE 14.8
25 July 2021 15:00 tempo osservato: Sereno Sereno 30 51 1010 vento: Nord S/SE 16.7
25 July 2021 14:30 tempo osservato: Sereno Sereno 31 45 1011 vento: Nord S 14.8
25 July 2021 14:00 tempo osservato: Molto Nuvoloso Molto Nuvoloso 31 43 1011 vento: Nord S 16.7
25 July 2021 13:30 tempo osservato: Sereno Sereno 32 40 1010 vento: Nord SE 14.8
25 July 2021 13:00 tempo osservato: Sereno Sereno 32 43 1010 vento: Nord S/SE 16.7
25 July 2021 12:30 tempo osservato: Sereno Sereno 31 43 1010 vento: Nord S/SE 14.8
25 July 2021 12:00 tempo osservato: Sereno Sereno 32 40 1010 vento: Nord S/SE 14.8
25 July 2021 11:30 tempo osservato: Sereno Sereno 32 40 1010 vento: Nord S/SE 14.8
25 July 2021 11:00 tempo osservato: Sereno Sereno 31 43 1010 vento: Nord SE 14.8
25 July 2021 10:30 tempo osservato: Sereno Sereno 31 43 1010 vento: Nord SE 18.5
25 July 2021 10:00 tempo osservato: Sereno Sereno 29 48 1010 vento: Nord S/SE 11.1
25 July 2021 09:30 tempo osservato: Sereno Sereno 29 48 1010 vento: Nord E/SE 9.3
25 July 2021 09:00 tempo osservato: Sereno Sereno 28 48 1010 vento: Nord SE 14.8
25 July 2021 08:30 tempo osservato: Sereno Sereno 28 51 1010 vento: Nord E/SE 13
25 July 2021 08:00 tempo osservato: Sereno Sereno 25 61 1010 vento: Nord N 5.5
25 July 2021 07:30 tempo osservato: Sereno Sereno 22 83 1010 vento: Nord N 1.8
25 July 2021 07:00 tempo osservato: Molto Nuvoloso Molto Nuvoloso 21 82 1010 vento: Nord N 0
25 July 2021 06:30 tempo osservato: Molto Nuvoloso Molto Nuvoloso 20 77 1010 vento: Nord N 1.8
25 July 2021 06:00 tempo osservato: Molto Nuvoloso Molto Nuvoloso 20 82 1010 vento: Nord N 1.8
25 July 2021 05:30 tempo osservato: Sereno Sereno 20 77 1010 vento: Nord N 0
25 July 2021 05:00 tempo osservato: Sereno Sereno 19 82 1010 vento: Nord N 5.5
25 July 2021 04:30 tempo osservato: Sereno Sereno 19 82 1010 vento: Nord N 3.7
25 July 2021 04:00 tempo osservato: Sereno Sereno 20 77 1010 vento: Nord N 5.5
25 July 2021 03:30 tempo osservato: Sereno Sereno 19 88 1010 vento: Nord N 5.5
25 July 2021 03:00 tempo osservato: Sereno Sereno 20 82 1011 vento: Nord N 1.8